createdAt,value
2023-01-11T17:15:29.843Z,11.80
2023-01-11T17:18:00.326Z,10.90
2023-01-11T17:20:31.104Z,10.70
2023-01-11T17:23:00.587Z,10.70
2023-01-11T17:25:43.559Z,10.60
2023-01-11T17:28:05.762Z,10.60
2023-01-11T17:30:35.268Z,10.60
2023-01-11T17:33:03.818Z,10.60
2023-01-11T17:35:36.443Z,10.60
2023-01-11T17:38:05.733Z,10.60
2023-01-11T17:40:38.054Z,10.60
2023-01-11T17:43:27.246Z,10.50
2023-01-11T17:45:58.208Z,10.60
2023-01-11T17:50:59.098Z,10.60
2023-01-11T17:53:29.948Z,10.50
2023-01-11T17:56:03.786Z,10.60
2023-01-11T17:58:33.869Z,10.60
2023-01-11T18:03:47.291Z,10.80
2023-01-11T18:06:24.661Z,10.70
2023-01-11T18:08:55.550Z,10.70
2023-01-11T18:11:34.035Z,10.80
2023-01-11T18:14:06.080Z,10.70
2023-01-11T18:16:34.900Z,10.70
2023-01-11T18:19:06.661Z,10.60
2023-01-11T18:21:55.078Z,10.70
2023-01-11T18:24:26.810Z,10.60
2023-01-11T18:27:07.397Z,10.70
2023-01-11T18:29:43.531Z,10.60
2023-01-11T18:32:15.913Z,10.60
2023-01-11T18:34:47.311Z,10.60
2023-01-11T18:37:16.295Z,10.70
2023-01-11T18:39:45.101Z,10.80
2023-01-11T18:42:19.350Z,10.80
2023-01-11T18:44:49.519Z,10.90
2023-01-11T18:47:23.800Z,10.70
2023-01-11T18:49:53.428Z,10.50
2023-01-11T18:52:26.736Z,10.60
2023-01-11T18:54:56.778Z,10.60
2023-01-11T18:57:25.987Z,10.60
2023-01-11T18:59:54.753Z,10.50
2023-01-11T19:02:32.202Z,10.50
2023-01-11T19:05:00.760Z,10.40
2023-01-11T19:07:29.329Z,10.40
2023-01-11T19:09:59.363Z,10.30
2023-01-11T19:12:28.135Z,10.30
2023-01-11T19:14:56.747Z,10.30
2023-01-11T19:17:27.409Z,10.20
2023-01-11T19:19:56.025Z,9.90
2023-01-11T19:22:26.612Z,10.30
2023-01-11T19:24:55.381Z,10.10
2023-01-11T19:27:24.563Z,10.20
2023-01-11T19:29:53.893Z,10.30
2023-01-11T19:32:24.126Z,10.40
2023-01-11T19:34:55.456Z,10.40
2023-01-11T19:37:24.120Z,10.50
2023-01-11T19:39:52.816Z,10.50
2023-01-11T19:42:23.115Z,10.70
2023-01-11T19:44:51.912Z,10.80
2023-01-11T19:47:21.867Z,10.60
2023-01-11T19:49:50.399Z,10.60
2023-01-11T19:52:21.683Z,10.50
2023-01-11T19:54:51.224Z,10.70
2023-01-11T19:57:20.881Z,10.60
2023-01-11T19:59:50.236Z,10.60
2023-01-11T20:02:21.845Z,10.60
2023-01-11T20:04:50.754Z,10.50
2023-01-11T20:07:20.304Z,10.50
2023-01-11T20:09:48.889Z,10.50
2023-01-11T20:12:17.490Z,10.50
2023-01-11T20:14:46.320Z,10.50
2023-01-11T20:17:17.546Z,10.40
2023-01-11T20:19:46.813Z,10.50
2023-01-11T20:22:15.513Z,10.50
2023-01-11T20:24:44.039Z,10.50
2023-01-11T20:27:12.762Z,10.50
2023-01-11T20:29:42.973Z,10.50
2023-01-11T20:32:34.890Z,10.60
2023-01-11T20:34:42.014Z,11.00
2023-01-11T20:37:10.626Z,10.60
2023-01-11T20:39:39.135Z,10.80
2023-01-11T20:42:08.801Z,10.80
2023-01-11T20:44:37.337Z,10.80
2023-01-11T20:47:05.979Z,10.90
2023-01-11T20:49:34.526Z,10.80
2023-01-11T20:52:03.609Z,10.90
2023-01-11T20:54:32.151Z,11.00
2023-01-11T20:57:02.318Z,11.00
2023-01-11T20:59:32.164Z,11.00
2023-01-11T21:02:00.791Z,11.10
2023-01-11T21:04:29.474Z,10.90
2023-01-11T21:06:58.039Z,11.10
2023-01-11T21:09:26.595Z,10.20
2023-01-11T21:11:55.147Z,11.20
2023-01-11T21:14:24.034Z,11.70
2023-01-11T21:16:54.227Z,11.30
2023-01-11T21:19:22.874Z,11.30
2023-01-11T21:21:51.404Z,11.40
2023-01-11T21:24:20.711Z,11.30
2023-01-11T21:26:49.356Z,11.20
2023-01-11T21:29:17.925Z,11.10
2023-01-11T21:31:46.657Z,11.20
2023-01-11T21:34:15.496Z,11.10
2023-01-11T21:36:44.500Z,11.10
2023-01-11T21:39:16.179Z,11.30
2023-01-11T21:41:57.918Z,11.30
2023-01-11T21:44:34.513Z,11.30
2023-01-11T21:47:04.812Z,11.30
2023-01-11T21:49:34.192Z,11.40
2023-01-11T21:52:02.737Z,11.40
2023-01-11T21:54:31.304Z,11.40
2023-01-11T21:56:59.842Z,11.40
2023-01-11T21:59:30.009Z,11.40
2023-01-11T22:01:58.559Z,11.40
2023-01-11T22:04:27.107Z,11.20
2023-01-11T22:06:58.123Z,11.00
2023-01-11T22:09:26.824Z,11.00
2023-01-11T22:11:55.681Z,10.90
2023-01-11T22:14:24.440Z,10.80
2023-01-11T22:16:54.004Z,10.80
2023-01-11T22:19:22.805Z,10.80
2023-01-11T22:21:51.353Z,10.80
2023-01-11T22:24:20.699Z,10.80
2023-01-11T22:26:49.287Z,10.90
2023-01-11T22:29:18.272Z,11.00
2023-01-11T22:31:51.272Z,10.90
2023-01-11T22:34:20.389Z,11.00
2023-01-11T22:36:49.519Z,11.10
2023-01-11T22:39:20.270Z,11.10
2023-01-11T22:41:49.868Z,11.20
2023-01-11T22:44:19.468Z,11.20
2023-01-11T22:46:48.121Z,11.20
2023-01-11T22:49:17.465Z,12.20
2023-01-11T22:51:46.187Z,11.40
2023-01-11T22:54:15.468Z,11.20
2023-01-11T22:56:44.192Z,11.20
2023-01-11T22:59:12.754Z,11.30
2023-01-11T23:01:42.754Z,11.30
2023-01-11T23:04:14.186Z,11.10
2023-01-11T23:06:43.961Z,11.40
2023-01-11T23:09:17.444Z,11.40
2023-01-11T23:12:03.881Z,11.40
2023-01-11T23:14:33.546Z,11.40
2023-01-11T23:17:06.930Z,11.40
2023-01-11T23:19:36.966Z,11.40
2023-01-11T23:22:05.756Z,11.30
2023-01-11T23:24:35.743Z,11.20
2023-01-11T23:27:04.544Z,11.00
2023-01-11T23:29:33.174Z,10.90
2023-01-11T23:32:02.092Z,10.90
2023-01-11T23:34:30.747Z,10.80
2023-01-11T23:36:59.289Z,10.80
2023-01-11T23:39:27.836Z,10.70
2023-01-11T23:42:14.395Z,10.60
2023-01-11T23:44:43.067Z,10.60
2023-01-11T23:47:21.814Z,10.60
2023-01-11T23:49:54.857Z,10.60
2023-01-11T23:52:25.872Z,10.50
2023-01-11T23:54:54.399Z,10.50
2023-01-11T23:57:24.225Z,10.50
2023-01-11T23:59:52.990Z,10.50
